sensor_id;sensor_type;location;lat;lon;timestamp;temperature;humidity
13944;DHT22;7044;53.286;8.534;2023-03-01T00:01:00;-0.60;99.90
13944;DHT22;7044;53.286;8.534;2023-03-01T00:03:27;-0.60;99.90
13944;DHT22;7044;53.286;8.534;2023-03-01T00:05:53;-0.60;99.90
13944;DHT22;7044;53.286;8.534;2023-03-01T00:08:20;-0.70;99.90
13944;DHT22;7044;53.286;8.534;2023-03-01T00:10:47;-0.70;99.90
13944;DHT22;7044;53.286;8.534;2023-03-01T00:13:14;-0.70;99.90
13944;DHT22;7044;53.286;8.534;2023-03-01T00:15:41;-0.80;99.90
13944;DHT22;7044;53.286;8.534;2023-03-01T00:18:10;-0.80;99.90
13944;DHT22;7044;53.286;8.534;2023-03-01T00:20:37;-0.90;99.90
13944;DHT22;7044;53.286;8.534;2023-03-01T00:23:03;-1.00;99.90
13944;DHT22;7044;53.286;8.534;2023-03-01T00:25:30;-0.90;99.90
13944;DHT22;7044;53.286;8.534;2023-03-01T00:27:57;-0.50;99.90
13944;DHT22;7044;53.286;8.534;2023-03-01T00:30:24;-0.80;99.90
13944;DHT22;7044;53.286;8.534;2023-03-01T00:32:51;-0.80;99.90
13944;DHT22;7044;53.286;8.534;2023-03-01T00:35:19;-0.70;99.90
13944;DHT22;7044;53.286;8.534;2023-03-01T00:37:45;-0.60;99.90
13944;DHT22;7044;53.286;8.534;2023-03-01T00:40:13;-0.60;99.90
13944;DHT22;7044;53.286;8.534;2023-03-01T00:42:41;-0.60;99.90
13944;DHT22;7044;53.286;8.534;2023-03-01T00:45:09;-0.80;99.90
13944;DHT22;7044;53.286;8.534;2023-03-01T00:47:36;-0.90;99.90
13944;DHT22;7044;53.286;8.534;2023-03-01T00:50:03;-0.90;99.90
13944;DHT22;7044;53.286;8.534;2023-03-01T00:52:31;-0.90;99.90
13944;DHT22;7044;53.286;8.534;2023-03-01T00:54:58;-0.90;99.90
13944;DHT22;7044;53.286;8.534;2023-03-01T00:57:25;-0.80;99.90
13944;DHT22;7044;53.286;8.534;2023-03-01T00:59:52;-0.90;99.90
13944;DHT22;7044;53.286;8.534;2023-03-01T01:02:19;-1.00;99.90
13944;DHT22;7044;53.286;8.534;2023-03-01T01:04:46;-1.00;99.90
13944;DHT22;7044;53.286;8.534;2023-03-01T01:07:12;-0.90;99.90
13944;DHT22;7044;53.286;8.534;2023-03-01T01:09:41;-0.90;99.90
13944;DHT22;7044;53.286;8.534;2023-03-01T01:12:08;-0.90;99.90
13944;DHT22;7044;53.286;8.534;2023-03-01T01:14:35;-0.90;99.90
13944;DHT22;7044;53.286;8.534;2023-03-01T01:17:02;-0.90;99.90
13944;DHT22;7044;53.286;8.534;2023-03-01T01:19:29;-0.90;99.90
13944;DHT22;7044;53.286;8.534;2023-03-01T01:21:56;-0.90;99.90
13944;DHT22;7044;53.286;8.534;2023-03-01T01:24:23;-0.90;99.90
13944;DHT22;7044;53.286;8.534;2023-03-01T01:26:51;-0.90;99.90
13944;DHT22;7044;53.286;8.534;2023-03-01T01:29:18;-0.90;99.90
13944;DHT22;7044;53.286;8.534;2023-03-01T01:31:44;-0.90;99.90
13944;DHT22;7044;53.286;8.534;2023-03-01T01:34:14;-1.00;99.90
13944;DHT22;7044;53.286;8.534;2023-03-01T01:36:41;-1.10;99.90
13944;DHT22;7044;53.286;8.534;2023-03-01T01:39:08;-1.10;99.90
13944;DHT22;7044;53.286;8.534;2023-03-01T01:41:39;-1.00;99.90
13944;DHT22;7044;53.286;8.534;2023-03-01T01:44:14;-1.00;99.90
13944;DHT22;7044;53.286;8.534;2023-03-01T01:46:43;-1.10;99.90
13944;DHT22;7044;53.286;8.534;2023-03-01T01:49:17;-1.00;99.90
13944;DHT22;7044;53.286;8.534;2023-03-01T01:51:47;-1.10;99.90
13944;DHT22;7044;53.286;8.534;2023-03-01T01:54:18;-1.10;99.90
13944;DHT22;7044;53.286;8.534;2023-03-01T01:56:50;-0.90;99.90
13944;DHT22;7044;53.286;8.534;2023-03-01T01:59:20;-1.00;99.90
13944;DHT22;7044;53.286;8.534;2023-03-01T02:01:50;-1.10;99.90
13944;DHT22;7044;53.286;8.534;2023-03-01T02:04:16;-1.10;99.90
13944;DHT22;7044;53.286;8.534;2023-03-01T02:06:49;-1.10;99.90
13944;DHT22;7044;53.286;8.534;2023-03-01T02:09:19;-1.10;99.90
13944;DHT22;7044;53.286;8.534;2023-03-01T02:11:47;-1.20;99.90
13944;DHT22;7044;53.286;8.534;2023-03-01T02:14:15;-1.10;99.90
13944;DHT22;7044;53.286;8.534;2023-03-01T02:16:44;-1.20;99.90
13944;DHT22;7044;53.286;8.534;2023-03-01T02:19:21;-1.00;99.90
13944;DHT22;7044;53.286;8.534;2023-03-01T02:21:57;-1.10;99.90
13944;DHT22;7044;53.286;8.534;2023-03-01T02:24:34;-1.10;99.90
13944;DHT22;7044;53.286;8.534;2023-03-01T02:27:03;-1.20;99.90
13944;DHT22;7044;53.286;8.534;2023-03-01T02:29:32;-1.20;99.90
13944;DHT22;7044;53.286;8.534;2023-03-01T02:32:00;-1.20;99.90
13944;DHT22;7044;53.286;8.534;2023-03-01T02:34:28;-1.10;99.90
13944;DHT22;7044;53.286;8.534;2023-03-01T02:36:59;-1.10;99.90
13944;DHT22;7044;53.286;8.534;2023-03-01T02:39:28;-1.10;99.90
13944;DHT22;7044;53.286;8.534;2023-03-01T02:41:57;-1.20;99.90
13944;DHT22;7044;53.286;8.534;2023-03-01T02:44:24;-1.20;99.90
13944;DHT22;7044;53.286;8.534;2023-03-01T02:46:53;-1.30;99.90
13944;DHT22;7044;53.286;8.534;2023-03-01T02:49:24;-1.30;99.90
13944;DHT22;7044;53.286;8.534;2023-03-01T02:52:26;-1.30;99.90
13944;DHT22;7044;53.286;8.534;2023-03-01T02:54:58;-1.40;99.90
13944;DHT22;7044;53.286;8.534;2023-03-01T02:57:28;-1.40;99.90
13944;DHT22;7044;53.286;8.534;2023-03-01T02:59:58;-1.40;99.90
13944;DHT22;7044;53.286;8.534;2023-03-01T03:02:29;-1.30;99.90
13944;DHT22;7044;53.286;8.534;2023-03-01T03:05:04;-1.30;99.90
13944;DHT22;7044;53.286;8.534;2023-03-01T03:07:34;-1.30;99.90
13944;DHT22;7044;53.286;8.534;2023-03-01T03:10:01;-1.30;99.90
13944;DHT22;7044;53.286;8.534;2023-03-01T03:12:28;-1.30;99.90
13944;DHT22;7044;53.286;8.534;2023-03-01T03:14:55;-1.20;99.90
13944;DHT22;7044;53.286;8.534;2023-03-01T03:17:22;-1.20;99.90
13944;DHT22;7044;53.286;8.534;2023-03-01T03:19:50;-1.30;99.90
13944;DHT22;7044;53.286;8.534;2023-03-01T03:22:17;-1.40;99.90
13944;DHT22;7044;53.286;8.534;2023-03-01T03:24:44;-1.40;99.90
13944;DHT22;7044;53.286;8.534;2023-03-01T03:27:10;-1.40;99.90
13944;DHT22;7044;53.286;8.534;2023-03-01T03:29:37;-1.40;99.90
13944;DHT22;7044;53.286;8.534;2023-03-01T03:32:04;-1.40;99.90
13944;DHT22;7044;53.286;8.534;2023-03-01T03:34:31;-1.40;99.90
13944;DHT22;7044;53.286;8.534;2023-03-01T03:36:59;-1.50;99.90
13944;DHT22;7044;53.286;8.534;2023-03-01T03:39:26;-1.60;99.90
13944;DHT22;7044;53.286;8.534;2023-03-01T03:41:54;-1.60;99.90
13944;DHT22;7044;53.286;8.534;2023-03-01T03:44:21;-1.60;99.90
13944;DHT22;7044;53.286;8.534;2023-03-01T03:46:48;-1.60;99.90
13944;DHT22;7044;53.286;8.534;2023-03-01T03:49:14;-1.60;99.90
13944;DHT22;7044;53.286;8.534;2023-03-01T03:51:41;-1.50;99.90
13944;DHT22;7044;53.286;8.534;2023-03-01T03:54:09;-1.60;99.90
13944;DHT22;7044;53.286;8.534;2023-03-01T03:56:36;-1.60;99.90
13944;DHT22;7044;53.286;8.534;2023-03-01T03:59:03;-1.70;99.90
13944;DHT22;7044;53.286;8.534;2023-03-01T04:01:31;-1.60;99.90
13944;DHT22;7044;53.286;8.534;2023-03-01T04:03:58;-1.70;99.90
13944;DHT22;7044;53.286;8.534;2023-03-01T04:06:29;-1.60;99.90
13944;DHT22;7044;53.286;8.534;2023-03-01T04:08:56;-1.60;99.90
13944;DHT22;7044;53.286;8.534;2023-03-01T04:11:29;-1.60;99.90
13944;DHT22;7044;53.286;8.534;2023-03-01T04:13:57;-1.70;99.90
13944;DHT22;7044;53.286;8.534;2023-03-01T04:16:25;-1.80;99.90
13944;DHT22;7044;53.286;8.534;2023-03-01T04:18:52;-1.80;99.90
13944;DHT22;7044;53.286;8.534;2023-03-01T04:21:20;-1.70;99.90
13944;DHT22;7044;53.286;8.534;2023-03-01T04:23:47;-1.80;99.90
13944;DHT22;7044;53.286;8.534;2023-03-01T04:26:18;-1.80;99.90
13944;DHT22;7044;53.286;8.534;2023-03-01T04:28:46;-1.80;99.90
13944;DHT22;7044;53.286;8.534;2023-03-01T04:31:17;-1.90;99.90
13944;DHT22;7044;53.286;8.534;2023-03-01T04:33:47;-1.90;99.90
13944;DHT22;7044;53.286;8.534;2023-03-01T04:36:17;-1.90;99.90
13944;DHT22;7044;53.286;8.534;2023-03-01T04:38:45;-1.80;99.90
13944;DHT22;7044;53.286;8.534;2023-03-01T04:41:15;-1.70;99.90
13944;DHT22;7044;53.286;8.534;2023-03-01T04:43:42;-1.70;99.90
13944;DHT22;7044;53.286;8.534;2023-03-01T04:46:12;-1.80;99.90
13944;DHT22;7044;53.286;8.534;2023-03-01T04:48:40;-1.80;99.90
13944;DHT22;7044;53.286;8.534;2023-03-01T04:51:07;-1.80;99.90
13944;DHT22;7044;53.286;8.534;2023-03-01T04:53:35;-1.80;99.90
13944;DHT22;7044;53.286;8.534;2023-03-01T04:56:02;-1.90;99.90
13944;DHT22;7044;53.286;8.534;2023-03-01T04:58:29;-1.90;99.90
13944;DHT22;7044;53.286;8.534;2023-03-01T05:00:56;-1.90;99.90
13944;DHT22;7044;53.286;8.534;2023-03-01T05:03:25;-1.90;99.90
13944;DHT22;7044;53.286;8.534;2023-03-01T05:05:52;-1.90;99.90
13944;DHT22;7044;53.286;8.534;2023-03-01T05:08:19;-1.90;99.90
13944;DHT22;7044;53.286;8.534;2023-03-01T05:10:49;-2.00;99.90
13944;DHT22;7044;53.286;8.534;2023-03-01T05:13:16;-2.00;99.90
13944;DHT22;7044;53.286;8.534;2023-03-01T05:15:46;-1.90;99.90
13944;DHT22;7044;53.286;8.534;2023-03-01T05:18:13;-2.00;99.90
13944;DHT22;7044;53.286;8.534;2023-03-01T05:20:42;-2.00;99.90
13944;DHT22;7044;53.286;8.534;2023-03-01T05:23:10;-2.00;99.90
13944;DHT22;7044;53.286;8.534;2023-03-01T05:25:37;-2.20;99.90
13944;DHT22;7044;53.286;8.534;2023-03-01T05:28:06;-2.10;99.90
13944;DHT22;7044;53.286;8.534;2023-03-01T05:30:35;-2.10;99.90
13944;DHT22;7044;53.286;8.534;2023-03-01T05:33:04;-2.10;99.90
13944;DHT22;7044;53.286;8.534;2023-03-01T05:35:36;-2.40;99.90
13944;DHT22;7044;53.286;8.534;2023-03-01T05:38:04;-2.40;99.90
13944;DHT22;7044;53.286;8.534;2023-03-01T05:40:33;-2.60;99.90
13944;DHT22;7044;53.286;8.534;2023-03-01T05:43:00;-2.60;99.90
13944;DHT22;7044;53.286;8.534;2023-03-01T05:45:27;-2.80;99.90
13944;DHT22;7044;53.286;8.534;2023-03-01T05:47:54;-2.80;99.90
13944;DHT22;7044;53.286;8.534;2023-03-01T05:50:22;-2.80;99.90
13944;DHT22;7044;53.286;8.534;2023-03-01T05:52:52;-2.80;99.90
13944;DHT22;7044;53.286;8.534;2023-03-01T05:55:24;-2.90;99.90
13944;DHT22;7044;53.286;8.534;2023-03-01T05:57:51;-3.10;99.90
13944;DHT22;7044;53.286;8.534;2023-03-01T06:00:19;-3.10;99.90
13944;DHT22;7044;53.286;8.534;2023-03-01T06:02:48;-3.00;99.90
13944;DHT22;7044;53.286;8.534;2023-03-01T06:05:15;-3.00;99.90
13944;DHT22;7044;53.286;8.534;2023-03-01T06:07:42;-2.90;99.90
13944;DHT22;7044;53.286;8.534;2023-03-01T06:10:10;-2.70;99.90
13944;DHT22;7044;53.286;8.534;2023-03-01T06:12:41;-2.50;99.90
13944;DHT22;7044;53.286;8.534;2023-03-01T06:15:09;-2.30;99.90
13944;DHT22;7044;53.286;8.534;2023-03-01T06:17:38;-2.10;99.90
13944;DHT22;7044;53.286;8.534;2023-03-01T06:20:08;-2.10;99.90
13944;DHT22;7044;53.286;8.534;2023-03-01T06:22:35;-2.00;99.90
13944;DHT22;7044;53.286;8.534;2023-03-01T06:25:03;-2.00;99.90
13944;DHT22;7044;53.286;8.534;2023-03-01T06:27:30;-2.00;99.90
13944;DHT22;7044;53.286;8.534;2023-03-01T06:29:58;-2.00;99.90
13944;DHT22;7044;53.286;8.534;2023-03-01T06:32:25;-2.00;99.90
13944;DHT22;7044;53.286;8.534;2023-03-01T06:34:52;-2.00;99.90
13944;DHT22;7044;53.286;8.534;2023-03-01T06:37:19;-2.10;99.90
13944;DHT22;7044;53.286;8.534;2023-03-01T06:39:45;-2.10;99.90
13944;DHT22;7044;53.286;8.534;2023-03-01T06:42:12;-2.00;99.90
13944;DHT22;7044;53.286;8.534;2023-03-01T06:44:39;-2.10;99.90
13944;DHT22;7044;53.286;8.534;2023-03-01T06:47:08;-2.10;99.90
13944;DHT22;7044;53.286;8.534;2023-03-01T06:49:35;-2.10;99.90
13944;DHT22;7044;53.286;8.534;2023-03-01T06:52:02;-2.10;99.90
13944;DHT22;7044;53.286;8.534;2023-03-01T06:54:28;-1.90;99.90
13944;DHT22;7044;53.286;8.534;2023-03-01T06:56:55;-1.80;99.90
13944;DHT22;7044;53.286;8.534;2023-03-01T06:59:22;-1.90;99.90
13944;DHT22;7044;53.286;8.534;2023-03-01T07:01:49;-1.90;99.90
13944;DHT22;7044;53.286;8.534;2023-03-01T07:04:17;-1.80;99.90
13944;DHT22;7044;53.286;8.534;2023-03-01T07:06:44;-1.80;99.90
13944;DHT22;7044;53.286;8.534;2023-03-01T07:09:10;-1.70;99.90
13944;DHT22;7044;53.286;8.534;2023-03-01T07:11:37;-1.70;99.90
13944;DHT22;7044;53.286;8.534;2023-03-01T07:14:04;-1.60;99.90
13944;DHT22;7044;53.286;8.534;2023-03-01T07:16:32;-1.40;99.90
13944;DHT22;7044;53.286;8.534;2023-03-01T07:18:59;-1.40;99.90
13944;DHT22;7044;53.286;8.534;2023-03-01T07:21:27;-1.40;99.90
13944;DHT22;7044;53.286;8.534;2023-03-01T07:23:54;-1.30;99.90
13944;DHT22;7044;53.286;8.534;2023-03-01T07:26:20;-1.30;99.90
13944;DHT22;7044;53.286;8.534;2023-03-01T07:28:47;-1.20;99.90
13944;DHT22;7044;53.286;8.534;2023-03-01T07:31:14;-1.20;99.90
13944;DHT22;7044;53.286;8.534;2023-03-01T07:33:41;-1.30;99.90
13944;DHT22;7044;53.286;8.534;2023-03-01T07:36:09;-1.20;99.90
13944;DHT22;7044;53.286;8.534;2023-03-01T07:38:37;-1.20;99.90
13944;DHT22;7044;53.286;8.534;2023-03-01T07:41:04;-1.10;99.90
13944;DHT22;7044;53.286;8.534;2023-03-01T07:43:31;-1.10;99.90
13944;DHT22;7044;53.286;8.534;2023-03-01T07:45:59;-1.00;99.90
13944;DHT22;7044;53.286;8.534;2023-03-01T07:48:27;-0.90;99.90
13944;DHT22;7044;53.286;8.534;2023-03-01T07:50:53;-1.00;99.90
13944;DHT22;7044;53.286;8.534;2023-03-01T07:53:20;-0.90;99.90
13944;DHT22;7044;53.286;8.534;2023-03-01T07:55:48;-0.80;99.90
13944;DHT22;7044;53.286;8.534;2023-03-01T07:58:15;-0.80;99.90
13944;DHT22;7044;53.286;8.534;2023-03-01T08:00:42;-0.80;99.90
13944;DHT22;7044;53.286;8.534;2023-03-01T08:03:09;-0.70;99.90
13944;DHT22;7044;53.286;8.534;2023-03-01T08:05:35;-0.70;99.90
13944;DHT22;7044;53.286;8.534;2023-03-01T08:08:03;-0.60;99.90
13944;DHT22;7044;53.286;8.534;2023-03-01T08:10:30;-0.60;99.90
13944;DHT22;7044;53.286;8.534;2023-03-01T08:12:58;-0.50;99.90
13944;DHT22;7044;53.286;8.534;2023-03-01T08:15:25;-0.50;99.90
13944;DHT22;7044;53.286;8.534;2023-03-01T08:17:52;-0.40;99.90
13944;DHT22;7044;53.286;8.534;2023-03-01T08:20:19;-0.40;99.90
13944;DHT22;7044;53.286;8.534;2023-03-01T08:22:46;-0.40;99.90
13944;DHT22;7044;53.286;8.534;2023-03-01T08:25:13;-0.30;99.90
13944;DHT22;7044;53.286;8.534;2023-03-01T08:27:39;-0.30;99.90
13944;DHT22;7044;53.286;8.534;2023-03-01T08:30:09;-0.20;99.90
13944;DHT22;7044;53.286;8.534;2023-03-01T08:32:37;-0.10;99.90
13944;DHT22;7044;53.286;8.534;2023-03-01T08:35:05;-0.10;99.90
13944;DHT22;7044;53.286;8.534;2023-03-01T08:37:32;0.00;99.90
13944;DHT22;7044;53.286;8.534;2023-03-01T08:39:59;0.00;99.90
13944;DHT22;7044;53.286;8.534;2023-03-01T08:42:25;0.10;99.90
13944;DHT22;7044;53.286;8.534;2023-03-01T08:44:52;0.20;99.90
13944;DHT22;7044;53.286;8.534;2023-03-01T08:47:20;0.30;99.90
13944;DHT22;7044;53.286;8.534;2023-03-01T08:49:49;0.10;99.90
13944;DHT22;7044;53.286;8.534;2023-03-01T08:52:16;0.50;99.90
13944;DHT22;7044;53.286;8.534;2023-03-01T08:54:43;0.50;99.90
13944;DHT22;7044;53.286;8.534;2023-03-01T08:57:09;0.60;99.90
13944;DHT22;7044;53.286;8.534;2023-03-01T08:59:37;0.70;99.90
13944;DHT22;7044;53.286;8.534;2023-03-01T09:02:04;0.80;99.90
13944;DHT22;7044;53.286;8.534;2023-03-01T09:04:32;0.90;99.90
13944;DHT22;7044;53.286;8.534;2023-03-01T09:06:59;0.90;99.90
13944;DHT22;7044;53.286;8.534;2023-03-01T09:09:25;1.00;99.90
13944;DHT22;7044;53.286;8.534;2023-03-01T09:11:52;1.00;99.90
13944;DHT22;7044;53.286;8.534;2023-03-01T09:14:19;1.10;99.90
13944;DHT22;7044;53.286;8.534;2023-03-01T09:16:46;1.20;99.90
13944;DHT22;7044;53.286;8.534;2023-03-01T09:19:13;1.30;99.90
13944;DHT22;7044;53.286;8.534;2023-03-01T09:21:41;1.40;99.90
13944;DHT22;7044;53.286;8.534;2023-03-01T09:24:20;1.50;99.90
13944;DHT22;7044;53.286;8.534;2023-03-01T09:26:47;1.50;99.90
13944;DHT22;7044;53.286;8.534;2023-03-01T09:29:14;1.50;99.90
13944;DHT22;7044;53.286;8.534;2023-03-01T09:31:42;1.60;99.90
13944;DHT22;7044;53.286;8.534;2023-03-01T09:34:09;1.60;99.90
13944;DHT22;7044;53.286;8.534;2023-03-01T09:36:36;1.70;99.90
13944;DHT22;7044;53.286;8.534;2023-03-01T09:39:05;1.80;99.90
13944;DHT22;7044;53.286;8.534;2023-03-01T09:41:46;1.80;99.90
13944;DHT22;7044;53.286;8.534;2023-03-01T09:44:23;1.80;99.90
13944;DHT22;7044;53.286;8.534;2023-03-01T09:46:52;1.90;99.90
13944;DHT22;7044;53.286;8.534;2023-03-01T09:49:22;1.90;99.90
13944;DHT22;7044;53.286;8.534;2023-03-01T09:51:56;2.00;99.90
13944;DHT22;7044;53.286;8.534;2023-03-01T09:54:25;2.00;99.90
13944;DHT22;7044;53.286;8.534;2023-03-01T09:57:01;2.10;99.90
13944;DHT22;7044;53.286;8.534;2023-03-01T09:59:38;2.10;99.90
13944;DHT22;7044;53.286;8.534;2023-03-01T10:02:23;2.10;99.90
13944;DHT22;7044;53.286;8.534;2023-03-01T10:04:51;2.20;99.90
13944;DHT22;7044;53.286;8.534;2023-03-01T10:07:27;2.30;99.90
13944;DHT22;7044;53.286;8.534;2023-03-01T10:09:58;2.30;99.90
13944;DHT22;7044;53.286;8.534;2023-03-01T10:12:27;2.40;99.90
13944;DHT22;7044;53.286;8.534;2023-03-01T10:15:00;2.50;99.90
13944;DHT22;7044;53.286;8.534;2023-03-01T10:17:34;2.60;99.90
13944;DHT22;7044;53.286;8.534;2023-03-01T10:20:19;2.60;99.90
13944;DHT22;7044;53.286;8.534;2023-03-01T10:22:46;2.70;99.90
13944;DHT22;7044;53.286;8.534;2023-03-01T10:25:23;2.80;99.90
13944;DHT22;7044;53.286;8.534;2023-03-01T10:27:58;2.90;99.90
13944;DHT22;7044;53.286;8.534;2023-03-01T10:30:34;3.00;99.90
13944;DHT22;7044;53.286;8.534;2023-03-01T10:33:16;3.10;99.90
13944;DHT22;7044;53.286;8.534;2023-03-01T10:35:44;3.20;99.90
13944;DHT22;7044;53.286;8.534;2023-03-01T10:38:12;3.30;99.90
13944;DHT22;7044;53.286;8.534;2023-03-01T10:40:53;3.40;99.90
13944;DHT22;7044;53.286;8.534;2023-03-01T10:43:20;3.50;99.90
13944;DHT22;7044;53.286;8.534;2023-03-01T10:45:48;3.60;99.90
13944;DHT22;7044;53.286;8.534;2023-03-01T10:48:17;3.70;99.90
13944;DHT22;7044;53.286;8.534;2023-03-01T10:50:46;3.70;99.90
13944;DHT22;7044;53.286;8.534;2023-03-01T10:53:22;3.80;99.90
13944;DHT22;7044;53.286;8.534;2023-03-01T10:55:59;3.90;99.90
13944;DHT22;7044;53.286;8.534;2023-03-01T10:58:27;4.00;99.90
13944;DHT22;7044;53.286;8.534;2023-03-01T11:00:56;4.10;99.90
13944;DHT22;7044;53.286;8.534;2023-03-01T11:03:24;4.20;99.90
13944;DHT22;7044;53.286;8.534;2023-03-01T11:06:08;4.20;99.90
13944;DHT22;7044;53.286;8.534;2023-03-01T11:08:47;4.30;99.90
13944;DHT22;7044;53.286;8.534;2023-03-01T11:11:25;4.40;99.90
13944;DHT22;7044;53.286;8.534;2023-03-01T11:13:58;4.50;99.90
13944;DHT22;7044;53.286;8.534;2023-03-01T11:16:30;4.50;99.90
13944;DHT22;7044;53.286;8.534;2023-03-01T11:18:59;4.70;99.90
13944;DHT22;7044;53.286;8.534;2023-03-01T11:21:28;4.60;99.90
13944;DHT22;7044;53.286;8.534;2023-03-01T11:24:00;4.70;99.90
13944;DHT22;7044;53.286;8.534;2023-03-01T11:26:28;4.70;99.90
13944;DHT22;7044;53.286;8.534;2023-03-01T11:29:02;4.80;99.90
13944;DHT22;7044;53.286;8.534;2023-03-01T11:31:31;4.80;99.90
13944;DHT22;7044;53.286;8.534;2023-03-01T11:34:03;4.90;99.90
13944;DHT22;7044;53.286;8.534;2023-03-01T11:36:35;5.00;99.90
13944;DHT22;7044;53.286;8.534;2023-03-01T11:39:07;4.90;99.90
13944;DHT22;7044;53.286;8.534;2023-03-01T11:41:39;5.00;99.90
13944;DHT22;7044;53.286;8.534;2023-03-01T11:44:14;5.00;99.90
13944;DHT22;7044;53.286;8.534;2023-03-01T11:46:59;4.90;99.90
13944;DHT22;7044;53.286;8.534;2023-03-01T11:49:45;5.00;99.90
13944;DHT22;7044;53.286;8.534;2023-03-01T11:52:21;5.00;99.90
13944;DHT22;7044;53.286;8.534;2023-03-01T11:55:12;5.10;99.90
13944;DHT22;7044;53.286;8.534;2023-03-01T11:58:02;5.20;99.90
13944;DHT22;7044;53.286;8.534;2023-03-01T12:00:44;5.40;99.90
13944;DHT22;7044;53.286;8.534;2023-03-01T12:03:27;5.50;99.90
13944;DHT22;7044;53.286;8.534;2023-03-01T12:09:09;5.40;99.90
13944;DHT22;7044;53.286;8.534;2023-03-01T12:11:50;5.60;99.90
13944;DHT22;7044;53.286;8.534;2023-03-01T12:14:51;5.60;99.90
13944;DHT22;7044;53.286;8.534;2023-03-01T12:17:50;5.60;99.90
13944;DHT22;7044;53.286;8.534;2023-03-01T12:20:28;5.70;99.90
13944;DHT22;7044;53.286;8.534;2023-03-01T12:23:16;5.70;99.90
13944;DHT22;7044;53.286;8.534;2023-03-01T12:25:48;5.70;99.90
13944;DHT22;7044;53.286;8.534;2023-03-01T12:28:34;5.80;99.90
13944;DHT22;7044;53.286;8.534;2023-03-01T12:31:26;5.80;99.90
13944;DHT22;7044;53.286;8.534;2023-03-01T12:34:03;5.90;99.90
13944;DHT22;7044;53.286;8.534;2023-03-01T12:36:50;5.90;99.90
13944;DHT22;7044;53.286;8.534;2023-03-01T12:39:33;5.90;99.90
13944;DHT22;7044;53.286;8.534;2023-03-01T12:42:11;5.90;99.90
13944;DHT22;7044;53.286;8.534;2023-03-01T12:44:52;5.80;99.90
13944;DHT22;7044;53.286;8.534;2023-03-01T12:47:40;5.90;99.90
13944;DHT22;7044;53.286;8.534;2023-03-01T12:50:14;5.90;99.90
13944;DHT22;7044;53.286;8.534;2023-03-01T12:52:47;6.00;99.90
13944;DHT22;7044;53.286;8.534;2023-03-01T12:55:25;6.10;99.90
13944;DHT22;7044;53.286;8.534;2023-03-01T12:58:01;6.10;99.90
13944;DHT22;7044;53.286;8.534;2023-03-01T13:00:35;6.00;99.90
13944;DHT22;7044;53.286;8.534;2023-03-01T13:03:12;6.10;99.90
13944;DHT22;7044;53.286;8.534;2023-03-01T13:05:47;6.20;99.90
13944;DHT22;7044;53.286;8.534;2023-03-01T13:08:22;6.20;99.90
13944;DHT22;7044;53.286;8.534;2023-03-01T13:10:58;6.20;99.90
13944;DHT22;7044;53.286;8.534;2023-03-01T13:13:26;6.20;99.90
13944;DHT22;7044;53.286;8.534;2023-03-01T13:15:54;6.20;99.90
13944;DHT22;7044;53.286;8.534;2023-03-01T13:18:30;6.30;99.90
13944;DHT22;7044;53.286;8.534;2023-03-01T13:20:59;6.30;99.90
13944;DHT22;7044;53.286;8.534;2023-03-01T13:23:30;6.20;99.90
13944;DHT22;7044;53.286;8.534;2023-03-01T13:28:48;6.40;99.90
13944;DHT22;7044;53.286;8.534;2023-03-01T13:34:53;6.40;99.90
13944;DHT22;7044;53.286;8.534;2023-03-01T13:37:28;6.40;99.90
13944;DHT22;7044;53.286;8.534;2023-03-01T13:39:57;6.30;99.90
13944;DHT22;7044;53.286;8.534;2023-03-01T13:42:40;6.40;99.90
13944;DHT22;7044;53.286;8.534;2023-03-01T13:45:20;6.40;99.90
13944;DHT22;7044;53.286;8.534;2023-03-01T13:47:50;6.50;99.90
13944;DHT22;7044;53.286;8.534;2023-03-01T13:50:23;6.50;99.90
13944;DHT22;7044;53.286;8.534;2023-03-01T13:52:55;6.60;99.90
13944;DHT22;7044;53.286;8.534;2023-03-01T13:55:30;6.60;99.90
13944;DHT22;7044;53.286;8.534;2023-03-01T13:58:01;6.60;99.90
13944;DHT22;7044;53.286;8.534;2023-03-01T14:00:33;6.60;99.90
13944;DHT22;7044;53.286;8.534;2023-03-01T14:03:08;6.50;99.90
13944;DHT22;7044;53.286;8.534;2023-03-01T14:05:38;6.60;99.90
13944;DHT22;7044;53.286;8.534;2023-03-01T14:08:14;6.60;99.90
13944;DHT22;7044;53.286;8.534;2023-03-01T14:10:52;6.60;99.90
13944;DHT22;7044;53.286;8.534;2023-03-01T14:13:32;6.60;99.90
13944;DHT22;7044;53.286;8.534;2023-03-01T14:16:14;6.60;99.90
13944;DHT22;7044;53.286;8.534;2023-03-01T14:18:51;6.60;99.90
13944;DHT22;7044;53.286;8.534;2023-03-01T14:21:22;6.70;99.90
13944;DHT22;7044;53.286;8.534;2023-03-01T14:23:51;6.70;99.90
13944;DHT22;7044;53.286;8.534;2023-03-01T14:26:21;6.70;99.90
13944;DHT22;7044;53.286;8.534;2023-03-01T14:28:48;6.70;99.90
13944;DHT22;7044;53.286;8.534;2023-03-01T14:31:45;6.70;99.90
13944;DHT22;7044;53.286;8.534;2023-03-01T14:34:19;6.60;99.90
13944;DHT22;7044;53.286;8.534;2023-03-01T14:36:47;6.70;99.90
13944;DHT22;7044;53.286;8.534;2023-03-01T14:39:19;6.70;99.90
13944;DHT22;7044;53.286;8.534;2023-03-01T14:41:46;6.70;99.90
13944;DHT22;7044;53.286;8.534;2023-03-01T14:44:17;6.70;99.90
13944;DHT22;7044;53.286;8.534;2023-03-01T14:46:45;6.70;99.90
13944;DHT22;7044;53.286;8.534;2023-03-01T14:49:15;6.70;99.90
13944;DHT22;7044;53.286;8.534;2023-03-01T14:51:50;6.70;99.90
13944;DHT22;7044;53.286;8.534;2023-03-01T14:54:24;6.70;99.90
13944;DHT22;7044;53.286;8.534;2023-03-01T14:56:53;6.70;99.90
13944;DHT22;7044;53.286;8.534;2023-03-01T14:59:22;6.70;99.90
13944;DHT22;7044;53.286;8.534;2023-03-01T15:01:50;6.70;99.90
13944;DHT22;7044;53.286;8.534;2023-03-01T15:04:18;6.80;99.90
13944;DHT22;7044;53.286;8.534;2023-03-01T15:06:46;6.70;99.90
13944;DHT22;7044;53.286;8.534;2023-03-01T15:09:16;6.70;99.90
13944;DHT22;7044;53.286;8.534;2023-03-01T15:11:44;6.70;99.90
13944;DHT22;7044;53.286;8.534;2023-03-01T15:14:28;6.70;99.90
13944;DHT22;7044;53.286;8.534;2023-03-01T15:16:55;6.70;99.90
13944;DHT22;7044;53.286;8.534;2023-03-01T15:19:24;6.70;99.90
13944;DHT22;7044;53.286;8.534;2023-03-01T15:21:54;6.70;99.90
13944;DHT22;7044;53.286;8.534;2023-03-01T15:24:25;6.60;99.90
13944;DHT22;7044;53.286;8.534;2023-03-01T15:26:57;6.60;99.90
13944;DHT22;7044;53.286;8.534;2023-03-01T15:29:28;6.60;99.90
13944;DHT22;7044;53.286;8.534;2023-03-01T15:31:58;6.60;99.90
13944;DHT22;7044;53.286;8.534;2023-03-01T15:34:26;6.60;99.90
13944;DHT22;7044;53.286;8.534;2023-03-01T15:36:55;6.60;99.90
13944;DHT22;7044;53.286;8.534;2023-03-01T15:39:38;6.60;99.90
13944;DHT22;7044;53.286;8.534;2023-03-01T15:42:10;6.60;99.90
13944;DHT22;7044;53.286;8.534;2023-03-01T15:44:38;6.60;99.90
13944;DHT22;7044;53.286;8.534;2023-03-01T15:47:22;6.50;99.90
13944;DHT22;7044;53.286;8.534;2023-03-01T15:49:51;6.50;99.90
13944;DHT22;7044;53.286;8.534;2023-03-01T15:52:22;6.40;99.90
13944;DHT22;7044;53.286;8.534;2023-03-01T15:54:59;6.40;99.90
13944;DHT22;7044;53.286;8.534;2023-03-01T15:57:26;6.40;99.90
13944;DHT22;7044;53.286;8.534;2023-03-01T15:59:53;6.40;99.90
13944;DHT22;7044;53.286;8.534;2023-03-01T16:02:20;6.20;99.90
13944;DHT22;7044;53.286;8.534;2023-03-01T16:04:48;6.30;99.90
13944;DHT22;7044;53.286;8.534;2023-03-01T16:07:15;6.20;99.90
13944;DHT22;7044;53.286;8.534;2023-03-01T16:09:42;6.20;99.90
13944;DHT22;7044;53.286;8.534;2023-03-01T16:12:14;6.30;99.90
13944;DHT22;7044;53.286;8.534;2023-03-01T16:14:41;6.10;99.90
13944;DHT22;7044;53.286;8.534;2023-03-01T16:17:08;6.10;99.90
13944;DHT22;7044;53.286;8.534;2023-03-01T16:19:35;6.00;99.90
13944;DHT22;7044;53.286;8.534;2023-03-01T16:22:02;6.00;99.90